Dawn Merchant — MYIL6 — position and weather

sailwx.info

Track history (hours):
 
Tides and Currents Weather Stations Pressure Air Temp Water Temp Dewpoint Dewpoint Depression Visibility Wind Speed Wind Dir Waves Ship Positions

Dawn Merchant

Operator: Norfolk Line

Last reported at 2018-Apr-26 19:00 UTC. Time now 2018-Apr-26 19:12 UTC.
Position S 41°17' E 174°00'.

Length 180 m; draft 5.9 m.

Type: Passenger vessel. MMSI: 232197000.

Date/timePositionNaut miles runAvg speedWind from/ knotsBaromVisibWave heightAir tempDewpointWater temp
2018-Apr-26 19:00S 41°17' E 174°00'4 8.0
2018-Apr-26 18:30S 41°14' E 174°04'714.8
2018-Apr-26 18:00S 41°10' E 174°13'714.9
2018-Apr-26 17:31S 41°05' E 174°19'815.0
2018-Apr-26 17:00S 41°07' E 174°29'918.3
2018-Apr-26 16:30S 41°16' E 174°33'918.9
2018-Apr-26 16:00S 41°23' E 174°42'915.1
2018-Apr-26 15:25S 41°17' E 174°51'11 3.2
2018-Apr-26 12:04S 41°23' E 174°39'117.6
2018-Apr-26 12:01S 41°22' E 174°37'917.6
2018-Apr-26 11:30S 41°18' E 174°27'816.2
2018-Apr-26 11:01S 41°13' E 174°19'815.0
2018-Apr-26 10:31S 41°15' E 174°09'612.3
2018-Apr-26 10:01S 41°16' E 174°01'1 2.7
2018-Apr-26 09:30S 41°17' E 174°00'0 0.0
2018-Apr-26 09:00S 41°17' E 174°00'0 0.0
2018-Apr-26 08:30S 41°17' E 174°00'0 0.3
2018-Apr-26 08:01S 41°17' E 174°00'612.5
2018-Apr-26 07:31S 41°14' E 174°08'611.8
2018-Apr-26 07:01S 41°14' E 174°15'612.3
2018-Apr-26 06:30S 41°15' E 174°23'816.8
2018-Apr-26 06:01S 41°20' E 174°33'1019.6
2018-Apr-26 05:31S 41°23' E 174°45'713.8
2018-Apr-26 05:00S 41°17' E 174°50'2 3.7
2018-Apr-26 04:30S 41°16' E 174°47'0 0.0
2018-Apr-26 04:00S 41°16' E 174°47'0 0.0
2018-Apr-26 03:30S 41°16' E 174°47'0 0.0
2018-Apr-26 03:00S 41°16' E 174°47'0 0.0
2018-Apr-26 02:30S 41°16' E 174°47'0 0.0
2018-Apr-26 02:00S 41°16' E 174°47'0 0.0
2018-Apr-26 01:30S 41°16' E 174°47'0 0.0
2018-Apr-26 01:00S 41°16' E 174°47'0 0.0
2018-Apr-26 00:30S 41°16' E 174°47'2 3.6
2018-Apr-26 00:00S 41°16' E 174°50'713.4
2018-Apr-25 23:30S 41°23' E 174°50'816.0
2018-Apr-25 23:00S 41°23' E 174°39'918.3
2018-Apr-25 22:30S 41°19' E 174°28'816.4
2018-Apr-25 22:00S 41°13' E 174°20'815.4
2018-Apr-25 21:30S 41°15' E 174°10'613.0
2018-Apr-25 21:01S 41°16' E 174°01'1 2.6
2018-Apr-25 20:31S 41°17' E 174°00'0 0.0
2018-Apr-25 20:01S 41°17' E 174°00'0 0.0
2018-Apr-25 19:31S 41°17' E 174°00'0 0.0
2018-Apr-25 19:00S 41°17' E 174°00'1 1.3
2018-Apr-25 18:31S 41°16' E 174°01'713.9
2018-Apr-25 18:01S 41°14' E 174°09'713.3
2018-Apr-25 17:30S 41°13' E 174°18'713.9
2018-Apr-25 17:00S 41°16' E 174°26'714.2
2018-Apr-25 16:30S 41°20' E 174°34'817.0
2018-Apr-25 16:00S 41°23' E 174°45'713.4
2018-Apr-25 15:29S 41°17' E 174°51'3 6.0
2018-Apr-25 15:00S 41°16' E 174°47'0 0.0
2018-Apr-25 14:30S 41°16' E 174°47'0 0.0
2018-Apr-25 14:00S 41°16' E 174°47'0 0.0
2018-Apr-25 13:30S 41°16' E 174°47'3 5.5
2018-Apr-25 13:00S 41°17' E 174°51'714.4
2018-Apr-25 12:31S 41°23' E 174°48'714.7
2018-Apr-25 12:00S 41°23' E 174°39'917.2
2018-Apr-25 11:31S 41°18' E 174°29'816.3
2018-Apr-25 11:01S 41°14' E 174°20'713.4
2018-Apr-25 10:31S 41°15' E 174°11'612.9
2018-Apr-25 10:01S 41°15' E 174°03'3 5.4
2018-Apr-25 09:30S 41°17' E 174°00'0 0.0
2018-Apr-25 09:00S 41°17' E 174°00'0 0.0
2018-Apr-25 08:30S 41°17' E 174°00'0 0.7
2018-Apr-25 08:00S 41°17' E 174°01'713.2
2018-Apr-25 07:30S 41°14' E 174°08'611.3
2018-Apr-25 07:00S 41°14' E 174°16'713.4
2018-Apr-25 06:31S 41°15' E 174°24'918.3
2018-Apr-25 06:01S 41°20' E 174°35'918.0
2018-Apr-25 05:30S 41°23' E 174°46'612.9
2018-Apr-25 05:01S 41°16' E 174°49'2 0.3
2018-Apr-25 00:10S 41°16' E 174°47'1 6.4
2018-Apr-24 23:57S 41°16' E 174°49'714.1
2018-Apr-24 23:28S 41°23' E 174°50'716.5
2018-Apr-24 23:00S 41°23' E 174°40'918.4
2018-Apr-24 22:30S 41°18' E 174°29'917.5
2018-Apr-24 22:00S 41°13' E 174°20'714.3
2018-Apr-24 21:30S 41°15' E 174°10'612.7
2018-Apr-24 21:00S 41°15' E 174°02'2 4.3
2018-Apr-24 20:29S 41°17' E 174°00'0 0.0
2018-Apr-24 19:59S 41°17' E 174°00'0 0.0
2018-Apr-24 19:28S 41°17' E 174°00'0 0.0
2018-Apr-24 19:00S 41°17' E 174°00'4 7.9
2018-Apr-24 18:30S 41°14' E 174°04'612.1
2018-Apr-24 17:59S 41°14' E 174°13'612.6
2018-Apr-24 17:30S 41°14' E 174°21'1019.3
2018-Apr-24 17:00S 41°19' E 174°31'1019.9
2018-Apr-24 16:31S 41°23' E 174°44'815.3
2018-Apr-24 16:00S 41°17' E 174°50'3 1.1
2018-Apr-24 13:34S 41°16' E 174°47'0 0.7
2018-Apr-24 13:30S 41°16' E 174°47'610.8
2018-Apr-24 12:56S 41°22' E 174°50'614.3
2018-Apr-24 12:30S 41°23' E 174°43'816.1
2018-Apr-24 12:00S 41°20' E 174°33'917.5
2018-Apr-24 11:30S 41°15' E 174°23'612.2
2018-Apr-24 11:00S 41°14' E 174°15'  
Track history (hours):
 
Tides and Currents Weather Stations Pressure Air Temp Water Temp Dewpoint Dewpoint Depression Visibility Wind Speed Wind Dir Waves Ship Positions

Dawn Merchant

Operator: Norfolk Line

Last reported at 2018-Apr-26 19:00 UTC. Time now 2018-Apr-26 19:12 UTC.
Position S 41°17' E 174°00'.

Length 180 m; draft 5.9 m.

Type: Passenger vessel. MMSI: 232197000.

Date/timePositionNaut miles runAvg speedWind from/ knotsBaromVisibWave heightAir tempDewpointWater temp
2018-Apr-26 19:00S 41°17' E 174°00'4 8.0
2018-Apr-26 18:30S 41°14' E 174°04'714.8
2018-Apr-26 18:00S 41°10' E 174°13'714.9
2018-Apr-26 17:31S 41°05' E 174°19'815.0
2018-Apr-26 17:00S 41°07' E 174°29'918.3
2018-Apr-26 16:30S 41°16' E 174°33'918.9
2018-Apr-26 16:00S 41°23' E 174°42'915.1
2018-Apr-26 15:25S 41°17' E 174°51'11 3.2
2018-Apr-26 12:04S 41°23' E 174°39'117.6
2018-Apr-26 12:01S 41°22' E 174°37'917.6
2018-Apr-26 11:30S 41°18' E 174°27'816.2
2018-Apr-26 11:01S 41°13' E 174°19'815.0
2018-Apr-26 10:31S 41°15' E 174°09'612.3
2018-Apr-26 10:01S 41°16' E 174°01'1 2.7
2018-Apr-26 09:30S 41°17' E 174°00'0 0.0
2018-Apr-26 09:00S 41°17' E 174°00'0 0.0
2018-Apr-26 08:30S 41°17' E 174°00'0 0.3
2018-Apr-26 08:01S 41°17' E 174°00'612.5
2018-Apr-26 07:31S 41°14' E 174°08'611.8
2018-Apr-26 07:01S 41°14' E 174°15'612.3
2018-Apr-26 06:30S 41°15' E 174°23'816.8
2018-Apr-26 06:01S 41°20' E 174°33'1019.6
2018-Apr-26 05:31S 41°23' E 174°45'713.8
2018-Apr-26 05:00S 41°17' E 174°50'2 3.7
2018-Apr-26 04:30S 41°16' E 174°47'0 0.0
2018-Apr-26 04:00S 41°16' E 174°47'0 0.0
2018-Apr-26 03:30S 41°16' E 174°47'0 0.0
2018-Apr-26 03:00S 41°16' E 174°47'0 0.0
2018-Apr-26 02:30S 41°16' E 174°47'0 0.0
2018-Apr-26 02:00S 41°16' E 174°47'0 0.0
2018-Apr-26 01:30S 41°16' E 174°47'0 0.0
2018-Apr-26 01:00S 41°16' E 174°47'0 0.0
2018-Apr-26 00:30S 41°16' E 174°47'2 3.6
2018-Apr-26 00:00S 41°16' E 174°50'713.4
2018-Apr-25 23:30S 41°23' E 174°50'816.0
2018-Apr-25 23:00S 41°23' E 174°39'918.3
2018-Apr-25 22:30S 41°19' E 174°28'816.4
2018-Apr-25 22:00S 41°13' E 174°20'815.4
2018-Apr-25 21:30S 41°15' E 174°10'613.0
2018-Apr-25 21:01S 41°16' E 174°01'1 2.6
2018-Apr-25 20:31S 41°17' E 174°00'0 0.0
2018-Apr-25 20:01S 41°17' E 174°00'0 0.0
2018-Apr-25 19:31S 41°17' E 174°00'0 0.0
2018-Apr-25 19:00S 41°17' E 174°00'1 1.3
2018-Apr-25 18:31S 41°16' E 174°01'713.9
2018-Apr-25 18:01S 41°14' E 174°09'713.3
2018-Apr-25 17:30S 41°13' E 174°18'713.9
2018-Apr-25 17:00S 41°16' E 174°26'714.2
2018-Apr-25 16:30S 41°20' E 174°34'817.0
2018-Apr-25 16:00S 41°23' E 174°45'713.4
2018-Apr-25 15:29S 41°17' E 174°51'3 6.0
2018-Apr-25 15:00S 41°16' E 174°47'0 0.0
2018-Apr-25 14:30S 41°16' E 174°47'0 0.0
2018-Apr-25 14:00S 41°16' E 174°47'0 0.0
2018-Apr-25 13:30S 41°16' E 174°47'3 5.5
2018-Apr-25 13:00S 41°17' E 174°51'714.4
2018-Apr-25 12:31S 41°23' E 174°48'714.7
2018-Apr-25 12:00S 41°23' E 174°39'917.2
2018-Apr-25 11:31S 41°18' E 174°29'816.3
2018-Apr-25 11:01S 41°14' E 174°20'713.4
2018-Apr-25 10:31S 41°15' E 174°11'612.9
2018-Apr-25 10:01S 41°15' E 174°03'3 5.4
2018-Apr-25 09:30S 41°17' E 174°00'0 0.0
2018-Apr-25 09:00S 41°17' E 174°00'0 0.0
2018-Apr-25 08:30S 41°17' E 174°00'0 0.7
2018-Apr-25 08:00S 41°17' E 174°01'713.2
2018-Apr-25 07:30S 41°14' E 174°08'611.3
2018-Apr-25 07:00S 41°14' E 174°16'713.4
2018-Apr-25 06:31S 41°15' E 174°24'918.3
2018-Apr-25 06:01S 41°20' E 174°35'918.0
2018-Apr-25 05:30S 41°23' E 174°46'612.9
2018-Apr-25 05:01S 41°16' E 174°49'2 0.3
2018-Apr-25 00:10S 41°16' E 174°47'1 6.4
2018-Apr-24 23:57S 41°16' E 174°49'714.1
2018-Apr-24 23:28S 41°23' E 174°50'716.5
2018-Apr-24 23:00S 41°23' E 174°40'918.4
2018-Apr-24 22:30S 41°18' E 174°29'917.5
2018-Apr-24 22:00S 41°13' E 174°20'714.3
2018-Apr-24 21:30S 41°15' E 174°10'612.7
2018-Apr-24 21:00S 41°15' E 174°02'2 4.3
2018-Apr-24 20:29S 41°17' E 174°00'0 0.0
2018-Apr-24 19:59S 41°17' E 174°00'0 0.0
2018-Apr-24 19:28S 41°17' E 174°00'0 0.0
2018-Apr-24 19:00S 41°17' E 174°00'4 7.9
2018-Apr-24 18:30S 41°14' E 174°04'612.1
2018-Apr-24 17:59S 41°14' E 174°13'612.6
2018-Apr-24 17:30S 41°14' E 174°21'1019.3
2018-Apr-24 17:00S 41°19' E 174°31'1019.9
2018-Apr-24 16:31S 41°23' E 174°44'815.3
2018-Apr-24 16:00S 41°17' E 174°50'3 1.1
2018-Apr-24 13:34S 41°16' E 174°47'0 0.7
2018-Apr-24 13:30S 41°16' E 174°47'610.8
2018-Apr-24 12:56S 41°22' E 174°50'614.3
2018-Apr-24 12:30S 41°23' E 174°43'816.1
2018-Apr-24 12:00S 41°20' E 174°33'917.5
2018-Apr-24 11:30S 41°15' E 174°23'612.2
2018-Apr-24 11:00S 41°14' E 174°15'  

Dump ship's entire track history